createdAt,value
2018-09-29T00:02:00.464Z,19.80
2018-09-29T00:04:28.654Z,19.80
2018-09-29T00:06:57.624Z,19.80
2018-09-29T00:09:26.024Z,19.80
2018-09-29T00:11:53.785Z,19.70
2018-09-29T00:14:21.992Z,19.70
2018-09-29T00:16:49.838Z,19.70
2018-09-29T00:19:18.091Z,19.70
2018-09-29T00:21:46.116Z,19.70
2018-09-29T00:24:14.344Z,19.70
2018-09-29T00:26:42.566Z,19.60
2018-09-29T00:29:10.857Z,19.60
2018-09-29T00:31:39.213Z,19.60
2018-09-29T00:34:07.111Z,19.60
2018-09-29T00:36:35.514Z,19.60
2018-09-29T00:39:05.275Z,19.60
2018-09-29T00:41:33.691Z,19.60
2018-09-29T00:44:02.194Z,19.60
2018-09-29T00:46:30.512Z,19.60
2018-09-29T00:48:58.740Z,19.50
2018-09-29T00:51:27.122Z,19.50
2018-09-29T00:53:56.222Z,19.50
2018-09-29T00:56:25.203Z,19.50
2018-09-29T00:58:54.376Z,19.50
2018-09-29T01:01:22.381Z,19.50
2018-09-29T01:03:50.289Z,19.40
2018-09-29T01:06:18.209Z,19.40
2018-09-29T01:08:46.482Z,19.40
2018-09-29T01:11:17.326Z,19.40
2018-09-29T01:13:45.521Z,19.30
2018-09-29T01:16:13.579Z,19.40
2018-09-29T01:18:41.156Z,19.30
2018-09-29T01:21:09.856Z,19.30
2018-09-29T01:23:38.334Z,19.30
2018-09-29T01:26:06.685Z,19.30
2018-09-29T01:28:35.633Z,19.30
2018-09-29T01:31:03.796Z,19.30
2018-09-29T01:33:31.873Z,19.30
2018-09-29T01:35:59.793Z,19.30
2018-09-29T01:38:28.105Z,19.20
2018-09-29T01:40:56.213Z,19.20
2018-09-29T01:43:24.294Z,19.20
2018-09-29T01:45:52.187Z,19.20
2018-09-29T01:48:20.397Z,19.20
2018-09-29T01:50:48.719Z,19.20
2018-09-29T01:53:16.838Z,19.20
2018-09-29T01:55:44.879Z,19.20
2018-09-29T01:58:12.998Z,19.10
2018-09-29T02:00:41.440Z,19.10
2018-09-29T02:03:11.900Z,19.10
2018-09-29T02:05:41.646Z,19.10
2018-09-29T02:08:10.120Z,19.10
2018-09-29T02:10:38.132Z,19.10
2018-09-29T02:13:06.099Z,19.10
2018-09-29T02:15:34.437Z,19.10
2018-09-29T02:18:02.536Z,19.10
2018-09-29T02:20:30.495Z,19.00
2018-09-29T02:22:58.218Z,19.00
2018-09-29T02:25:26.601Z,19.00
2018-09-29T02:27:55.277Z,19.00
2018-09-29T02:30:23.536Z,19.00
2018-09-29T02:32:51.501Z,19.00
2018-09-29T02:35:19.826Z,19.00
2018-09-29T02:37:47.985Z,19.00
2018-09-29T02:40:16.095Z,19.00
2018-09-29T02:42:45.152Z,18.90
2018-09-29T02:45:13.358Z,18.90
2018-09-29T02:47:41.947Z,18.90
2018-09-29T02:50:10.330Z,18.90
2018-09-29T02:52:39.110Z,18.90
2018-09-29T02:55:08.189Z,18.90
2018-09-29T02:57:39.268Z,18.90
2018-09-29T03:00:07.585Z,18.90
2018-09-29T03:02:35.523Z,18.80
2018-09-29T03:05:04.582Z,18.80
2018-09-29T03:07:33.288Z,18.80
2018-09-29T03:10:01.432Z,18.80
2018-09-29T03:12:29.934Z,18.80
2018-09-29T03:14:58.256Z,18.80
2018-09-29T03:17:26.536Z,18.80
2018-09-29T03:19:54.872Z,18.80
2018-09-29T03:22:23.610Z,18.80
2018-09-29T03:24:51.622Z,18.70
2018-09-29T03:27:19.905Z,18.80
2018-09-29T03:29:48.962Z,18.70
2018-09-29T03:32:17.427Z,18.70
2018-09-29T03:34:45.834Z,18.70
2018-09-29T03:37:14.626Z,18.70
2018-09-29T03:39:43.456Z,18.70
2018-09-29T03:42:11.860Z,18.70
2018-09-29T03:44:40.383Z,18.70
2018-09-29T03:47:08.666Z,18.60
2018-09-29T03:49:37.256Z,18.60
2018-09-29T03:52:05.845Z,18.60
2018-09-29T03:54:35.185Z,18.60
2018-09-29T03:57:03.515Z,18.60
2018-09-29T03:59:32.019Z,18.60
2018-09-29T04:02:01.149Z,18.60
2018-09-29T04:04:30.389Z,18.60
2018-09-29T04:06:58.988Z,18.60
2018-09-29T04:09:28.109Z,18.50
2018-09-29T04:11:57.683Z,18.60
2018-09-29T04:14:26.206Z,18.50
2018-09-29T04:16:54.882Z,18.50
2018-09-29T04:19:23.979Z,18.50
2018-09-29T04:21:52.482Z,18.50
2018-09-29T04:24:21.162Z,18.50
2018-09-29T04:26:50.136Z,18.50
2018-09-29T04:29:18.529Z,18.50
2018-09-29T04:31:46.836Z,18.50
2018-09-29T04:34:14.787Z,18.50
2018-09-29T04:36:43.972Z,18.50
2018-09-29T04:39:13.916Z,18.50
2018-09-29T04:41:44.661Z,18.40
2018-09-29T04:44:15.090Z,18.40
2018-09-29T04:46:43.373Z,18.40
2018-09-29T04:49:12.424Z,18.40
2018-09-29T04:51:46.612Z,18.40
2018-09-29T04:54:14.915Z,18.40
2018-09-29T04:56:43.583Z,18.40
2018-09-29T04:59:11.706Z,18.40
2018-09-29T05:01:39.969Z,18.40
2018-09-29T05:04:08.602Z,18.40
2018-09-29T05:06:37.163Z,18.30
2018-09-29T05:09:07.201Z,18.30
2018-09-29T05:11:35.617Z,18.20
2018-09-29T05:14:03.709Z,18.20
2018-09-29T05:16:31.724Z,18.20
2018-09-29T05:19:00.308Z,18.20
2018-09-29T05:21:28.774Z,18.20
2018-09-29T05:23:56.628Z,18.20
2018-09-29T05:26:24.641Z,18.20
2018-09-29T05:28:53.149Z,18.20
2018-09-29T05:31:21.221Z,18.20
2018-09-29T05:33:49.684Z,18.20
2018-09-29T05:36:17.891Z,18.20
2018-09-29T05:38:46.226Z,18.20
2018-09-29T05:41:14.660Z,18.20
2018-09-29T05:43:43.347Z,18.20
2018-09-29T05:46:11.933Z,18.20
2018-09-29T05:48:39.841Z,18.20
2018-09-29T05:51:07.639Z,18.20
2018-09-29T05:53:36.120Z,18.20
2018-09-29T05:56:04.600Z,18.20
2018-09-29T05:58:32.826Z,18.20
2018-09-29T06:01:00.341Z,18.20
2018-09-29T06:03:28.516Z,18.20
2018-09-29T06:05:56.847Z,18.20
2018-09-29T06:08:25.113Z,18.20
2018-09-29T06:10:53.823Z,18.20
2018-09-29T06:13:22.541Z,18.20
2018-09-29T06:15:51.611Z,18.20
2018-09-29T06:18:19.738Z,18.20
2018-09-29T06:20:47.370Z,18.20
2018-09-29T06:23:16.044Z,18.20
2018-09-29T06:25:45.041Z,18.20
2018-09-29T06:28:13.050Z,18.20
2018-09-29T06:30:41.068Z,18.20
2018-09-29T06:33:09.256Z,18.20
2018-09-29T06:35:37.361Z,18.20
2018-09-29T06:38:05.132Z,18.20
2018-09-29T06:40:33.497Z,18.20
2018-09-29T06:43:01.246Z,18.20
2018-09-29T06:45:29.232Z,18.30
2018-09-29T06:47:57.729Z,18.30
2018-09-29T06:50:26.314Z,18.30
2018-09-29T06:52:54.468Z,18.30
2018-09-29T06:55:22.568Z,18.30
2018-09-29T06:57:51.874Z,18.20
2018-09-29T07:00:20.228Z,18.20
2018-09-29T07:02:48.039Z,18.20
2018-09-29T07:05:16.465Z,18.20
2018-09-29T07:07:44.490Z,18.20
2018-09-29T07:10:13.251Z,18.20
2018-09-29T07:12:41.712Z,18.20
2018-09-29T07:15:09.089Z,18.60
2018-09-29T07:17:36.425Z,18.70
2018-09-29T07:20:04.377Z,18.70
2018-09-29T07:22:31.810Z,18.60
2018-09-29T07:24:59.366Z,18.60
2018-09-29T07:27:27.061Z,18.50
2018-09-29T07:29:54.817Z,18.30
2018-09-29T07:32:21.927Z,18.20
2018-09-29T07:34:49.210Z,18.20
2018-09-29T07:37:16.432Z,18.20
2018-09-29T07:39:43.925Z,18.10
2018-09-29T07:42:11.091Z,18.10
2018-09-29T07:44:39.655Z,18.10
2018-09-29T07:47:06.971Z,18.10
2018-09-29T07:49:34.104Z,18.00
2018-09-29T07:52:01.790Z,17.90
2018-09-29T07:54:29.025Z,17.90
2018-09-29T07:56:56.547Z,17.90
2018-09-29T07:59:24.268Z,17.90
2018-09-29T08:01:51.412Z,17.90
2018-09-29T08:04:18.551Z,17.90
2018-09-29T08:06:45.721Z,17.90
2018-09-29T08:09:13.187Z,17.80
2018-09-29T08:11:40.451Z,17.80
2018-09-29T08:14:07.653Z,17.80
2018-09-29T08:16:35.055Z,17.70
2018-09-29T08:19:02.391Z,17.70
2018-09-29T08:21:30.030Z,17.70
2018-09-29T08:23:57.230Z,17.80
2018-09-29T08:26:24.780Z,17.90
2018-09-29T08:28:52.306Z,17.90
2018-09-29T08:31:20.234Z,18.00
2018-09-29T08:33:47.699Z,18.00
2018-09-29T08:36:15.183Z,18.20
2018-09-29T08:38:42.711Z,18.20
2018-09-29T08:41:10.170Z,18.20
2018-09-29T08:43:37.964Z,18.20
2018-09-29T08:46:06.710Z,18.30
2018-09-29T08:48:35.001Z,18.30
2018-09-29T08:51:03.829Z,18.30
2018-09-29T08:53:39.249Z,18.40
2018-09-29T08:56:07.316Z,18.50
2018-09-29T08:58:36.229Z,18.50
2018-09-29T09:01:04.844Z,18.50
2018-09-29T09:03:33.522Z,18.50
2018-09-29T09:06:02.111Z,18.50
2018-09-29T09:08:30.111Z,18.60
2018-09-29T09:10:58.467Z,18.60
2018-09-29T09:13:32.037Z,18.70
2018-09-29T09:16:00.673Z,18.80
2018-09-29T09:18:28.885Z,18.70
2018-09-29T09:20:56.877Z,18.70
2018-09-29T09:23:25.114Z,18.70
2018-09-29T09:25:53.574Z,18.70
2018-09-29T09:28:21.650Z,18.70
2018-09-29T09:30:49.977Z,18.70
2018-09-29T09:33:18.154Z,18.70
2018-09-29T09:35:46.322Z,18.70
2018-09-29T09:38:14.468Z,18.80
2018-09-29T09:40:42.330Z,18.70
2018-09-29T09:43:10.414Z,18.70
2018-09-29T09:45:38.543Z,18.70
2018-09-29T09:48:07.065Z,18.60
2018-09-29T09:50:35.154Z,18.60
2018-09-29T09:53:03.335Z,18.60
2018-09-29T09:55:31.202Z,18.70
2018-09-29T09:57:59.783Z,18.70
2018-09-29T10:00:33.281Z,18.60
2018-09-29T10:03:38.033Z,18.60
2018-09-29T10:06:06.224Z,18.50
2018-09-29T10:08:34.459Z,18.50
2018-09-29T10:11:03.224Z,18.50
2018-09-29T10:13:31.300Z,18.40
2018-09-29T10:15:59.160Z,18.50
2018-09-29T10:18:26.912Z,18.50
2018-09-29T10:20:54.790Z,18.50
2018-09-29T10:23:22.715Z,18.40
2018-09-29T10:25:50.636Z,18.40
2018-09-29T10:28:18.982Z,18.30
2018-09-29T10:30:46.837Z,18.30
2018-09-29T10:33:15.122Z,18.30
2018-09-29T10:35:43.196Z,18.40
2018-09-29T10:38:11.483Z,18.40
2018-09-29T10:40:39.656Z,18.40
2018-09-29T10:43:07.324Z,18.40
2018-09-29T10:45:35.245Z,18.30
2018-09-29T10:48:02.929Z,18.20
2018-09-29T10:50:30.726Z,18.20
2018-09-29T10:52:59.219Z,18.20
2018-09-29T10:55:26.990Z,18.20
2018-09-29T10:57:54.972Z,18.20
2018-09-29T11:00:22.505Z,18.20
2018-09-29T11:02:50.445Z,18.20
2018-09-29T11:05:18.058Z,18.20
2018-09-29T11:07:45.859Z,18.20
2018-09-29T11:10:13.707Z,18.20
2018-09-29T11:12:42.037Z,18.20
2018-09-29T11:15:10.112Z,18.20
2018-09-29T11:17:37.965Z,18.20
2018-09-29T11:20:06.114Z,18.20
2018-09-29T11:22:34.292Z,18.20
2018-09-29T11:25:02.165Z,18.10
2018-09-29T11:27:29.814Z,18.10
2018-09-29T11:29:58.017Z,18.20
2018-09-29T11:32:26.083Z,18.10
2018-09-29T11:34:54.971Z,18.10
2018-09-29T11:37:23.520Z,18.10
2018-09-29T11:39:52.028Z,18.00
2018-09-29T11:42:19.968Z,18.00
2018-09-29T11:44:48.153Z,17.90
2018-09-29T11:47:17.178Z,18.00
2018-09-29T11:49:45.790Z,18.10
2018-09-29T11:52:13.742Z,18.00
2018-09-29T11:54:41.940Z,18.00
2018-09-29T11:57:10.498Z,17.90
2018-09-29T11:59:38.537Z,17.90
2018-09-29T12:02:06.345Z,17.90
2018-09-29T12:04:34.292Z,17.80
2018-09-29T12:07:02.484Z,17.80
2018-09-29T12:09:30.666Z,17.80
2018-09-29T12:11:58.551Z,17.80
2018-09-29T12:14:26.626Z,17.70
2018-09-29T12:16:54.491Z,17.70
2018-09-29T12:19:22.190Z,17.70
2018-09-29T12:21:50.368Z,17.80
2018-09-29T12:24:18.322Z,17.80
2018-09-29T12:26:46.843Z,17.70
2018-09-29T12:29:14.802Z,17.70
2018-09-29T12:31:42.647Z,17.60
2018-09-29T12:34:10.843Z,17.70
2018-09-29T12:36:38.926Z,17.80
2018-09-29T12:39:07.652Z,17.90
2018-09-29T12:41:35.463Z,18.10
2018-09-29T12:44:03.790Z,18.00
2018-09-29T12:46:31.952Z,17.90
2018-09-29T12:49:00.229Z,17.90
2018-09-29T12:51:28.813Z,17.90
2018-09-29T12:53:57.132Z,17.90
2018-09-29T12:56:25.552Z,17.90
2018-09-29T12:58:53.372Z,17.90
2018-09-29T13:01:21.531Z,17.90
2018-09-29T13:03:49.702Z,17.80
2018-09-29T13:06:17.708Z,17.90
2018-09-29T13:08:46.076Z,17.80
2018-09-29T13:11:14.125Z,17.70
2018-09-29T13:13:42.267Z,17.70
2018-09-29T13:16:10.769Z,17.80
2018-09-29T13:18:38.924Z,17.80
2018-09-29T13:21:06.919Z,17.80
2018-09-29T13:23:35.217Z,17.80
2018-09-29T13:26:03.579Z,17.70
2018-09-29T13:28:31.766Z,17.70
2018-09-29T13:31:01.069Z,17.70
2018-09-29T13:33:29.436Z,17.90
2018-09-29T13:35:58.203Z,17.80
2018-09-29T13:38:26.076Z,17.80
2018-09-29T13:40:54.325Z,17.90
2018-09-29T13:43:22.918Z,17.90
2018-09-29T13:45:52.389Z,17.90
2018-09-29T13:48:19.847Z,17.90
2018-09-29T13:50:48.170Z,17.90
2018-09-29T13:53:15.928Z,17.80
2018-09-29T13:55:43.501Z,17.80
2018-09-29T13:58:11.479Z,17.80
2018-09-29T14:00:39.950Z,17.80
2018-09-29T14:03:08.075Z,17.70
2018-09-29T14:05:36.319Z,17.70
2018-09-29T14:08:03.832Z,17.60
2018-09-29T14:10:31.501Z,17.50
2018-09-29T14:12:59.191Z,17.60
2018-09-29T14:15:27.647Z,17.60
2018-09-29T14:17:55.686Z,17.50
2018-09-29T14:20:23.516Z,17.60
2018-09-29T14:22:51.206Z,17.50
2018-09-29T14:25:19.036Z,17.50
2018-09-29T14:27:46.956Z,17.50
2018-09-29T14:30:14.898Z,17.50
2018-09-29T14:32:42.657Z,17.50
2018-09-29T14:35:10.368Z,17.60
2018-09-29T14:37:38.508Z,17.60
2018-09-29T14:40:06.729Z,17.60
2018-09-29T14:42:34.437Z,17.60
2018-09-29T14:45:02.909Z,17.60
2018-09-29T14:47:30.821Z,17.60
2018-09-29T14:49:58.438Z,17.60
2018-09-29T14:52:26.219Z,17.50
2018-09-29T14:54:53.744Z,17.60
2018-09-29T14:57:21.308Z,17.50
2018-09-29T14:59:49.495Z,17.50
2018-09-29T15:02:17.087Z,17.50
2018-09-29T15:04:45.196Z,17.50
2018-09-29T15:07:13.236Z,17.50
2018-09-29T15:09:41.182Z,17.50
2018-09-29T15:12:09.215Z,17.50
2018-09-29T15:14:37.047Z,17.50
2018-09-29T15:17:05.069Z,17.50
2018-09-29T15:19:32.420Z,17.50
2018-09-29T15:22:00.065Z,17.50
2018-09-29T15:24:27.962Z,17.50
2018-09-29T15:26:55.651Z,17.50
2018-09-29T15:29:22.883Z,17.50
2018-09-29T15:31:50.407Z,17.40
2018-09-29T15:34:17.893Z,17.40
2018-09-29T15:36:45.589Z,17.40
2018-09-29T15:39:13.322Z,17.30
2018-09-29T15:41:41.805Z,17.30
2018-09-29T15:44:09.772Z,17.30
2018-09-29T15:46:37.392Z,17.30
2018-09-29T15:49:05.414Z,17.30
2018-09-29T15:51:32.891Z,17.30
2018-09-29T15:54:00.244Z,17.30
2018-09-29T15:56:27.935Z,17.30
2018-09-29T15:58:56.007Z,17.30
2018-09-29T16:01:23.834Z,17.30
2018-09-29T16:03:51.490Z,17.30
2018-09-29T16:16:51.570Z,18.90
2018-09-29T16:29:11.415Z,18.10
2018-09-29T16:31:38.668Z,16.90
2018-09-29T16:34:06.331Z,15.80
2018-09-29T16:36:33.697Z,15.00
2018-09-29T16:39:01.111Z,14.30
2018-09-29T16:41:28.425Z,13.70
2018-09-29T16:43:55.848Z,13.20
2018-09-29T16:46:23.678Z,12.90
2018-09-29T16:48:51.090Z,12.60
2018-09-29T16:51:18.642Z,12.40
2018-09-29T16:53:46.340Z,12.20
2018-09-29T16:56:13.820Z,12.00
2018-09-29T16:58:41.348Z,11.80
2018-09-29T17:01:08.773Z,11.60
2018-09-29T17:03:36.171Z,11.50
2018-09-29T17:06:03.617Z,11.30
2018-09-29T17:08:31.169Z,11.20
2018-09-29T17:10:58.480Z,11.10
2018-09-29T17:13:25.760Z,11.00
2018-09-29T17:15:53.663Z,10.90
2018-09-29T17:18:21.454Z,10.90
2018-09-29T17:20:48.753Z,10.80
2018-09-29T17:23:16.140Z,10.70
2018-09-29T17:25:43.540Z,10.70
2018-09-29T17:28:10.873Z,10.60
2018-09-29T17:30:38.329Z,10.60
2018-09-29T17:33:05.618Z,10.60
2018-09-29T17:35:32.957Z,10.50
2018-09-29T17:38:00.257Z,10.50
2018-09-29T17:40:27.652Z,10.50
2018-09-29T17:42:54.979Z,10.50
2018-09-29T17:45:22.319Z,10.50
2018-09-29T17:47:49.671Z,10.50
2018-09-29T17:50:17.165Z,10.50
2018-09-29T17:52:44.481Z,10.40
2018-09-29T17:55:12.405Z,10.50
2018-09-29T17:57:40.329Z,10.50
2018-09-29T18:00:08.146Z,10.40
2018-09-29T18:02:35.739Z,10.40
2018-09-29T18:05:04.063Z,10.40
2018-09-29T18:07:31.841Z,10.40
2018-09-29T18:09:59.764Z,10.40
2018-09-29T18:12:28.157Z,10.40
2018-09-29T18:14:55.653Z,10.40
2018-09-29T18:17:23.531Z,10.30
2018-09-29T18:19:51.036Z,10.40
2018-09-29T18:22:18.659Z,10.30
2018-09-29T18:24:46.507Z,10.30
2018-09-29T18:27:14.277Z,10.30
2018-09-29T18:29:41.817Z,10.30
2018-09-29T18:32:09.531Z,10.30
2018-09-29T18:34:37.252Z,10.30
2018-09-29T18:37:04.623Z,10.30
2018-09-29T18:39:32.075Z,10.30
2018-09-29T18:41:59.882Z,10.20
2018-09-29T18:44:27.305Z,10.20
2018-09-29T18:46:54.961Z,10.20
2018-09-29T18:49:22.640Z,10.20
2018-09-29T18:51:51.353Z,10.20
2018-09-29T18:54:18.698Z,10.20
2018-09-29T18:56:46.248Z,10.20
2018-09-29T18:59:13.626Z,10.10
2018-09-29T19:01:41.081Z,10.10
2018-09-29T19:04:08.568Z,10.10
2018-09-29T19:06:36.576Z,10.10
2018-09-29T19:09:07.055Z,10.10
2018-09-29T19:11:34.751Z,10.00
2018-09-29T19:14:02.350Z,10.00
2018-09-29T19:16:30.260Z,10.00
2018-09-29T19:18:57.632Z,10.00
2018-09-29T19:21:25.707Z,10.00
2018-09-29T19:23:53.567Z,10.00
2018-09-29T19:26:21.434Z,10.00
2018-09-29T19:28:49.274Z,10.00
2018-09-29T19:31:17.073Z,10.00
2018-09-29T19:33:44.554Z,9.90
2018-09-29T19:36:12.319Z,9.90
2018-09-29T19:38:39.871Z,9.90
2018-09-29T19:41:07.459Z,9.90
2018-09-29T19:43:35.391Z,9.90
2018-09-29T19:46:03.213Z,9.90
2018-09-29T19:48:31.480Z,9.90
2018-09-29T19:50:59.488Z,9.80
2018-09-29T19:53:27.448Z,9.90
2018-09-29T19:55:55.219Z,9.80
2018-09-29T19:58:22.824Z,9.80
2018-09-29T20:00:50.293Z,9.80
2018-09-29T20:03:17.905Z,9.80
2018-09-29T20:05:45.804Z,9.80
2018-09-29T20:08:14.205Z,9.70
2018-09-29T20:10:41.878Z,9.70
2018-09-29T20:13:09.350Z,9.70
2018-09-29T20:15:36.859Z,9.70
2018-09-29T20:18:04.568Z,9.70
2018-09-29T20:20:32.039Z,9.70
2018-09-29T20:22:59.587Z,9.70
2018-09-29T20:25:27.664Z,9.70
2018-09-29T20:27:55.369Z,9.70
2018-09-29T20:30:23.030Z,9.70
2018-09-29T20:32:50.506Z,9.60
2018-09-29T20:35:17.918Z,9.60
2018-09-29T20:37:45.290Z,9.60
2018-09-29T20:40:12.701Z,9.50
2018-09-29T20:42:40.862Z,9.50
2018-09-29T20:45:08.702Z,9.50
2018-09-29T20:47:36.644Z,9.50
2018-09-29T20:50:04.666Z,9.50
2018-09-29T20:52:32.113Z,9.50
2018-09-29T20:54:59.955Z,9.50
2018-09-29T20:57:28.033Z,9.40
2018-09-29T20:59:56.649Z,9.40
2018-09-29T21:02:24.698Z,9.40
2018-09-29T21:04:53.258Z,9.40
2018-09-29T21:07:20.816Z,9.30
2018-09-29T21:09:48.797Z,9.30
2018-09-29T21:12:16.327Z,9.30
2018-09-29T21:14:43.808Z,9.30
2018-09-29T21:17:11.339Z,9.30
2018-09-29T21:19:39.102Z,9.30
2018-09-29T21:22:06.700Z,9.30
2018-09-29T21:24:34.188Z,9.20
2018-09-29T21:27:02.186Z,9.10
2018-09-29T21:29:29.930Z,9.10
2018-09-29T21:31:58.187Z,9.10
2018-09-29T21:34:26.058Z,9.10
2018-09-29T21:36:53.648Z,9.10
2018-09-29T21:39:21.234Z,9.00
2018-09-29T21:41:48.725Z,9.00
2018-09-29T21:44:16.754Z,9.00
2018-09-29T21:46:44.633Z,9.00
2018-09-29T21:49:12.250Z,9.00
2018-09-29T21:51:41.420Z,9.10
2018-09-29T21:54:09.026Z,9.00
2018-09-29T21:56:37.299Z,9.00
2018-09-29T21:59:05.013Z,9.00
2018-09-29T22:18:39.856Z,8.70
2018-09-29T22:21:07.522Z,8.70
2018-09-29T22:23:35.050Z,8.80
2018-09-29T22:26:02.598Z,8.70
2018-09-29T22:28:30.715Z,8.70
2018-09-29T22:30:58.434Z,8.70
2018-09-29T22:33:26.394Z,8.70
2018-09-29T22:35:54.214Z,8.70
2018-09-29T22:38:22.077Z,8.70
2018-09-29T22:40:49.600Z,8.70
2018-09-29T22:43:17.265Z,8.70
2018-09-29T22:45:44.734Z,8.70
2018-09-29T22:48:12.195Z,8.70
2018-09-29T22:50:40.204Z,8.70
2018-09-29T22:53:08.283Z,8.60
2018-09-29T22:55:36.285Z,8.50
2018-09-29T22:58:04.055Z,8.50
2018-09-29T23:00:31.990Z,8.50
2018-09-29T23:03:00.776Z,8.50
2018-09-29T23:05:28.335Z,8.50
2018-09-29T23:07:55.876Z,8.50
2018-09-29T23:10:23.783Z,8.50
2018-09-29T23:12:51.975Z,8.40
2018-09-29T23:15:19.796Z,8.40
2018-09-29T23:17:47.441Z,8.40
2018-09-29T23:20:15.590Z,8.30
2018-09-29T23:22:43.506Z,8.30
2018-09-29T23:25:11.436Z,8.30
2018-09-29T23:27:39.265Z,8.30
2018-09-29T23:30:07.059Z,8.20
2018-09-29T23:32:34.402Z,8.30
2018-09-29T23:35:01.870Z,8.20
2018-09-29T23:37:29.183Z,8.20
2018-09-29T23:39:56.677Z,8.10
2018-09-29T23:42:24.286Z,8.10
2018-09-29T23:44:51.818Z,8.10
2018-09-29T23:47:19.188Z,8.00
2018-09-29T23:49:46.475Z,8.00
2018-09-29T23:52:14.265Z,8.00
2018-09-29T23:54:41.931Z,8.00
2018-09-29T23:57:09.438Z,7.90
2018-09-29T23:59:37.256Z,7.90
